Time;durP1;ratioP1;P1;durP2;ratioP2;P2;SDS_P1;SDS_P2;PMS_P1;PMS_P2;Temp;Humidity;BMP_temperature;BMP_pressure;BME280_temperature;BME280_humidity;BME280_pressure;Samples;Min_cycle;Max_cycle;Signal;HPM_P1;HPM_P2
2021/06/21 00:01:16;;;;;;;4.43;3.17;;;17.40;99.90;;;18.23;100.00;97072.13;5285729;28;20561;-63
2021/06/21 00:03:49;;;;;;;6.15;3.03;;;17.50;99.90;;;18.30;100.00;97071.34;5287472;28;20190;-63
2021/06/21 00:06:22;;;;;;;6.80;3.40;;;17.50;99.90;;;18.31;100.00;97067.91;5287965;28;20675;-63
2021/06/21 00:08:55;;;;;;;6.40;3.45;;;17.50;99.90;;;18.24;100.00;97071.25;5287214;28;20194;-64
2021/06/21 00:11:28;;;;;;;7.47;3.53;;;17.40;99.90;;;18.24;100.00;97079.88;5289192;28;20196;-63
2021/06/21 00:14:01;;;;;;;8.13;3.30;;;17.40;99.90;;;18.28;100.00;97088.56;5287969;28;20566;-64
2021/06/21 00:16:36;;;;;;;8.45;3.58;;;17.40;99.90;;;18.30;100.00;97089.47;5290726;28;20229;-63
2021/06/21 00:19:09;;;;;;;6.20;3.17;;;17.50;99.90;;;18.30;100.00;97094.63;5291982;28;20194;-63
2021/06/21 00:21:42;;;;;;;6.60;2.92;;;17.40;99.90;;;18.29;100.00;97107.56;5292712;28;20565;-65
2021/06/21 00:24:20;;;;;;;6.93;3.33;;;17.50;99.90;;;18.29;100.00;97100.66;5293959;28;20202;-65
2021/06/21 00:26:54;;;;;;;6.25;3.35;;;17.50;99.90;;;18.20;100.00;97090.19;5293537;28;20789;-63
2021/06/21 00:29:26;;;;;;;6.25;3.45;;;17.30;99.90;;;18.26;100.00;97092.88;5293455;28;20207;-64
2021/06/21 00:32:01;;;;;;;8.57;3.85;;;17.40;99.90;;;18.32;100.00;97095.53;5291433;28;20198;-63
2021/06/21 00:34:34;;;;;;;5.85;3.63;;;17.70;99.90;;;18.25;100.00;97098.88;5292030;28;20205;-64
2021/06/21 00:37:07;;;;;;;7.22;3.33;;;17.50;99.90;;;18.32;100.00;97112.78;5291412;28;20215;-64
2021/06/21 00:39:40;;;;;;;8.57;3.40;;;17.50;99.90;;;18.34;100.00;97114.53;5291922;28;20542;-64
2021/06/21 00:42:13;;;;;;;7.72;3.30;;;17.40;99.90;;;18.29;100.00;97103.25;5294382;27;20202;-63
2021/06/21 00:44:47;;;;;;;9.13;3.92;;;17.40;99.90;;;18.30;100.00;97096.34;5290206;28;20191;-64
2021/06/21 00:47:21;;;;;;;5.70;3.53;;;17.50;99.90;;;18.32;100.00;97090.34;5290428;28;20194;-64
2021/06/21 00:49:54;;;;;;;8.23;3.63;;;17.60;99.90;;;18.33;100.00;97081.72;5291324;28;20209;-63
2021/06/21 00:52:27;;;;;;;6.18;3.30;;;17.60;99.90;;;18.37;100.00;97088.72;5291328;28;20570;-63
2021/06/21 00:55:01;;;;;;;5.35;3.13;;;17.60;99.90;;;18.30;100.00;97079.09;5290557;28;20793;-63
2021/06/21 00:57:38;;;;;;;5.57;2.90;;;17.40;99.90;;;18.26;100.00;97082.50;5291130;28;20229;-64
2021/06/21 01:00:14;;;;;;;8.32;3.33;;;17.40;99.90;;;18.21;100.00;97085.03;5289354;28;20647;-64
2021/06/21 01:02:49;;;;;;;6.40;2.67;;;17.50;99.90;;;18.27;100.00;97081.66;5290424;28;20195;-63
2021/06/21 01:05:26;;;;;;;5.85;2.60;;;17.40;99.90;;;18.29;100.00;97082.56;5290626;28;20217;-63
2021/06/21 01:07:59;;;;;;;4.30;2.63;;;17.40;99.90;;;18.28;100.00;97080.78;5290547;28;20302;-63
2021/06/21 01:10:33;;;;;;;3.83;2.72;;;17.40;99.90;;;18.31;100.00;97091.19;5291190;28;20195;-63
2021/06/21 01:13:38;;;;;;;6.15;3.17;;;17.40;99.90;;;18.30;100.00;97089.47;5290185;28;20569;-64
2021/06/21 01:16:18;;;;;;;4.70;2.60;;;17.40;99.90;;;18.16;100.00;97086.66;5290589;28;20659;-64
2021/06/21 01:18:59;;;;;;;3.85;2.50;;;17.20;99.90;;;18.14;100.00;97082.31;5291524;28;20218;-63
2021/06/21 01:22:29;;;;;;;5.57;3.13;;;17.20;99.90;;;18.18;100.00;97094.47;5290493;28;20195;-63
2021/06/21 01:25:10;;;;;;;4.05;2.75;;;17.20;99.90;;;18.13;100.00;97089.22;5272907;28;20241;-65
2021/06/21 01:27:53;;;;;;;3.92;2.80;;;17.20;99.90;;;18.18;100.00;97081.53;5282417;28;20236;-65
2021/06/21 01:30:41;;;;;;;3.90;2.47;;;17.30;99.90;;;18.10;100.00;97083.13;5290474;28;20191;-63
2021/06/21 01:33:16;;;;;;;5.90;2.88;;;17.20;99.90;;;17.93;100.00;97088.91;5289491;28;20198;-65
2021/06/21 01:35:54;;;;;;;6.10;2.67;;;17.00;99.90;;;17.97;100.00;97098.47;5286570;28;20238;-64
2021/06/21 01:38:32;;;;;;;6.03;3.10;;;17.20;99.90;;;18.02;100.00;97095.94;5290297;28;20215;-64
2021/06/21 01:41:07;;;;;;;5.20;2.80;;;17.20;99.90;;;18.04;100.00;97085.63;5290237;28;20206;-64
2021/06/21 01:43:42;;;;;;;7.30;3.10;;;17.20;99.90;;;18.08;100.00;97090.84;5290131;28;20216;-64
2021/06/21 01:46:19;;;;;;;5.80;3.35;;;17.30;99.90;;;18.05;100.00;97072.69;5290418;28;20211;-65
2021/06/21 01:48:57;;;;;;;7.07;3.60;;;17.20;99.90;;;17.99;100.00;97065.72;5289859;28;20751;-65
2021/06/21 01:51:32;;;;;;;5.15;3.40;;;17.10;99.90;;;17.82;100.00;97067.19;5290233;28;20206;-64
2021/06/21 01:54:08;;;;;;;5.30;3.50;;;16.90;99.90;;;17.84;100.00;97059.47;5289645;28;20191;-65
2021/06/21 01:56:45;;;;;;;5.05;3.00;;;17.10;99.90;;;17.85;100.00;97077.56;5289142;28;20211;-65
2021/06/21 01:59:19;;;;;;;7.35;3.30;;;17.00;99.90;;;17.90;100.00;97081.09;5285470;28;20222;-64
2021/06/21 02:01:53;;;;;;;5.07;3.50;;;17.10;99.90;;;17.97;100.00;97088.13;5289247;28;20191;-64
2021/06/21 02:04:32;;;;;;;5.50;3.20;;;17.10;99.90;;;18.00;100.00;97083.00;5288341;28;20674;-64
2021/06/21 02:07:07;;;;;;;3.75;3.40;;;17.20;99.90;;;18.03;100.00;97069.25;5290232;28;20223;-64
2021/06/21 02:09:41;;;;;;;6.10;3.25;;;17.20;99.90;;;18.02;100.00;97070.94;5289454;28;20277;-64
2021/06/21 02:12:19;;;;;;;7.00;3.38;;;17.20;99.90;;;17.97;100.00;97071.72;5290151;28;20198;-65
2021/06/21 02:14:52;;;;;;;4.18;3.03;;;17.00;99.90;;;17.92;100.00;97069.06;5288686;28;20187;-65
2021/06/21 02:17:27;;;;;;;7.50;3.50;;;17.00;99.90;;;17.79;100.00;97072.31;5289357;28;20234;-64
2021/06/21 02:20:01;;;;;;;3.25;2.55;;;16.90;99.90;;;17.79;100.00;97077.47;5288458;28;20549;-64
2021/06/21 02:22:34;;;;;;;5.40;3.22;;;16.90;99.90;;;17.79;100.00;97077.47;5288523;28;20197;-65
2021/06/21 02:25:10;;;;;;;6.03;3.45;;;16.80;99.90;;;17.82;100.00;97087.88;5288542;28;20223;-65
2021/06/21 02:27:44;;;;;;;4.30;3.15;;;16.90;99.90;;;17.79;100.00;97092.97;5289114;28;20195;-62
2021/06/21 02:30:18;;;;;;;5.25;2.92;;;16.90;99.90;;;17.78;100.00;97088.66;5288512;28;20210;-64
2021/06/21 02:32:52;;;;;;;5.10;3.55;;;16.90;99.90;;;17.80;100.00;97084.41;5288676;28;20205;-64
2021/06/21 02:35:28;;;;;;;6.80;3.35;;;17.00;99.90;;;17.84;100.00;97101.69;5288760;28;20225;-64
2021/06/21 02:38:02;;;;;;;5.40;3.33;;;17.00;99.90;;;17.89;100.00;97110.41;5288457;28;20211;-64
2021/06/21 02:40:36;;;;;;;4.82;2.70;;;17.10;99.90;;;17.89;100.00;97114.72;5288510;28;20195;-65
2021/06/21 02:43:09;;;;;;;5.72;2.58;;;17.00;99.90;;;17.86;100.00;97120.69;5288321;28;20643;-65
2021/06/21 02:45:42;;;;;;;6.32;3.47;;;17.00;99.90;;;17.87;100.00;97117.25;5288278;28;20218;-65
2021/06/21 02:48:16;;;;;;;5.78;3.40;;;17.00;99.90;;;17.84;100.00;97131.84;5289389;28;20658;-65
2021/06/21 02:50:53;;;;;;;5.38;3.42;;;16.90;99.90;;;17.81;100.00;97122.31;5288274;28;20667;-65
2021/06/21 02:53:34;;;;;;;5.43;3.60;;;16.90;99.90;;;17.82;100.00;97124.06;5287678;28;20199;-64
2021/06/21 02:56:13;;;;;;;5.57;3.33;;;16.90;99.90;;;17.86;100.00;97127.59;5288635;28;20559;-65
2021/06/21 02:58:48;;;;;;;4.90;3.45;;;17.00;99.90;;;17.81;100.00;97119.75;5289094;28;20210;-65
2021/06/21 03:01:22;;;;;;;5.65;3.65;;;16.90;99.90;;;17.80;100.00;97118.00;5288682;28;20647;-65
2021/06/21 03:03:58;;;;;;;5.03;3.65;;;17.00;99.90;;;17.80;100.00;97120.59;5288105;28;20204;-64
2021/06/21 03:06:33;;;;;;;6.22;3.15;;;16.90;99.90;;;17.74;100.00;97133.34;5288458;28;20686;-65
2021/06/21 03:09:07;;;;;;;8.50;3.17;;;16.80;99.90;;;17.69;100.00;97132.44;5287974;28;20187;-65
2021/06/21 03:11:43;;;;;;;7.03;3.30;;;16.80;99.90;;;17.68;100.00;97136.72;5288427;28;20700;-65
2021/06/21 03:14:17;;;;;;;4.82;2.80;;;16.80;99.90;;;17.71;100.00;97128.13;5287523;28;20199;-64
2021/06/21 03:16:51;;;;;;;6.28;2.80;;;16.80;99.90;;;17.66;100.00;97127.22;5287879;28;20207;-65
2021/06/21 03:19:27;;;;;;;4.13;2.50;;;16.80;99.90;;;17.65;100.00;97133.22;5288431;28;20215;-65
2021/06/21 03:22:02;;;;;;;4.03;2.53;;;16.70;99.90;;;17.62;100.00;97135.75;5288654;28;20256;-65
2021/06/21 03:24:35;;;;;;;5.70;2.88;;;16.70;99.90;;;17.63;100.00;97137.50;5286875;28;20578;-64
2021/06/21 03:27:09;;;;;;;5.97;2.75;;;16.70;99.90;;;17.58;100.00;97146.88;5288028;28;20226;-64
2021/06/21 03:29:42;;;;;;;6.00;2.92;;;16.70;99.90;;;17.52;100.00;97145.91;5287839;28;20196;-65
2021/06/21 03:32:27;;;;;;;3.88;2.30;;;16.60;99.90;;;17.52;100.00;97140.75;5288633;28;20199;-64
2021/06/21 03:35:05;;;;;;;6.55;2.88;;;16.70;99.90;;;17.52;100.00;97135.59;5286782;28;20210;-65
2021/06/21 03:37:40;;;;;;;4.82;2.58;;;16.70;99.90;;;17.43;100.00;97145.75;5288721;28;20648;-65
2021/06/21 03:40:14;;;;;;;5.05;3.00;;;16.50;99.90;;;17.43;100.00;97140.59;5287029;28;20694;-64
2021/06/21 03:42:47;;;;;;;7.75;2.70;;;16.50;99.90;;;17.46;100.00;97138.06;5287332;28;20682;-65
2021/06/21 03:45:20;;;;;;;3.92;2.72;;;16.60;99.90;;;17.45;100.00;97135.44;5281677;28;20705;-65
2021/06/21 03:47:54;;;;;;;4.57;2.63;;;16.60;99.90;;;17.43;100.00;97139.72;5287451;28;20198;-65
2021/06/21 03:50:27;;;;;;;5.05;2.50;;;16.60;99.90;;;17.39;100.00;97132.75;5286443;28;20549;-65
2021/06/21 03:53:03;;;;;;;5.38;2.80;;;16.50;99.90;;;17.35;100.00;97152.50;5287370;28;20195;-64
2021/06/21 03:55:36;;;;;;;6.40;3.00;;;16.50;99.90;;;17.34;100.00;97145.59;5287633;28;20636;-65
2021/06/21 03:58:09;;;;;;;6.78;3.90;;;16.40;99.90;;;17.38;100.00;97142.22;5287970;28;20195;-65
2021/06/21 04:00:42;;;;;;;4.57;3.40;;;16.40;99.90;;;17.39;100.00;97154.28;5289816;28;20206;-65
2021/06/21 04:03:16;;;;;;;6.57;3.58;;;16.40;99.90;;;17.45;100.00;97149.22;5286896;28;20191;-65
2021/06/21 04:05:49;;;;;;;6.07;3.22;;;16.50;99.90;;;17.52;100.00;97151.09;5287763;28;20215;-65
2021/06/21 04:08:24;;;;;;;6.60;3.10;;;16.60;99.90;;;17.60;100.00;97158.09;5287994;28;20202;-65
2021/06/21 04:10:57;;;;;;;5.18;3.03;;;16.70;99.90;;;17.58;100.00;97170.13;5287231;28;20201;-65
2021/06/21 04:13:30;;;;;;;6.53;2.97;;;16.60;99.90;;;17.65;100.00;97161.63;5287098;28;20191;-65
2021/06/21 04:16:03;;;;;;;7.00;3.40;;;16.70;99.90;;;17.67;100.00;97163.41;5286896;28;20572;-65
2021/06/21 04:18:36;;;;;;;4.60;2.75;;;16.80;99.90;;;17.70;100.00;97154.84;5287541;28;20229;-65
2021/06/21 04:21:10;;;;;;;4.95;3.33;;;16.70;99.90;;;17.71;100.00;97156.56;5287034;28;20198;-66
2021/06/21 04:23:44;;;;;;;8.13;5.65;;;16.70;99.90;;;17.67;100.00;97152.22;5287267;28;20206;-64
2021/06/21 04:26:17;;;;;;;6.00;4.00;;;16.60;99.90;;;17.73;100.00;97152.31;5287290;28;20232;-65
2021/06/21 04:28:51;;;;;;;7.53;3.58;;;16.80;99.90;;;17.84;100.00;97158.56;5287711;28;20196;-65
2021/06/21 04:31:24;;;;;;;5.80;3.55;;;16.80;99.90;;;17.94;100.00;97168.25;5286591;28;20194;-66
2021/06/21 04:33:58;;;;;;;5.78;3.20;;;17.00;99.90;;;18.07;100.00;97156.38;5286783;28;20207;-65
2021/06/21 04:36:31;;;;;;;5.80;3.08;;;17.10;99.90;;;18.15;100.00;97148.75;5279416;28;20585;-65
2021/06/21 04:39:05;;;;;;;5.65;2.75;;;17.10;99.90;;;18.22;100.00;97142.78;5287268;28;20484;-66
2021/06/21 04:41:38;;;;;;;7.75;2.80;;;17.20;99.90;;;18.36;100.00;97136.13;5286943;28;20205;-66
2021/06/21 04:44:11;;;;;;;8.25;3.00;;;17.40;99.90;;;18.71;100.00;97150.41;5287209;28;20211;-65
2021/06/21 04:46:44;;;;;;;5.63;3.15;;;17.60;99.90;;;19.07;100.00;97144.88;5287673;28;20736;-65
2021/06/21 04:49:17;;;;;;;8.02;3.65;;;17.80;99.90;;;19.44;100.00;97150.47;5287005;28;20187;-65
2021/06/21 04:51:52;;;;;;;5.18;3.53;;;18.00;99.90;;;19.45;100.00;97159.97;5286207;28;20196;-66
2021/06/21 04:54:26;;;;;;;7.10;3.30;;;17.80;99.90;;;19.25;98.19;97160.63;5285983;28;20610;-66
2021/06/21 04:56:59;;;;;;;5.22;3.40;;;17.80;99.90;;;19.16;98.47;97164.84;5287469;28;20221;-65
2021/06/21 04:59:32;;;;;;;6.35;4.30;;;17.70;99.90;;;19.04;98.60;97166.41;5287250;28;20240;-66
2021/06/21 05:02:05;;;;;;;7.65;6.95;;;17.70;99.90;;;19.00;99.58;97175.03;5287343;28;20192;-66
2021/06/21 05:04:38;;;;;;;7.57;6.95;;;17.70;99.90;;;19.00;100.00;97168.94;5281329;28;20272;-64
2021/06/21 05:07:11;;;;;;;9.18;8.30;;;17.60;99.90;;;18.89;99.69;97167.09;5291097;28;20197;-64
2021/06/21 05:09:48;;;;;;;9.20;8.30;;;17.60;99.90;;;18.86;100.00;97172.25;5290408;28;20193;-64
2021/06/21 05:12:21;;;;;;;8.38;6.78;;;17.50;99.90;;;18.89;100.00;97164.50;5290686;28;20197;-64
2021/06/21 05:14:54;;;;;;;7.70;5.05;;;17.60;99.90;;;18.89;100.00;97174.88;5290062;28;20287;-64
2021/06/21 05:17:28;;;;;;;6.38;3.90;;;17.60;99.90;;;18.79;99.53;97177.31;5289753;28;20207;-64
2021/06/21 05:20:01;;;;;;;6.78;4.28;;;17.60;99.90;;;18.99;100.00;97169.81;5290975;28;20686;-64
2021/06/21 05:22:34;;;;;;;9.43;3.97;;;17.80;99.90;;;19.40;100.00;97172.00;5289391;28;20580;-64
2021/06/21 05:25:11;;;;;;;5.82;3.83;;;18.20;99.90;;;20.02;100.00;97171.81;5290423;28;20235;-64
2021/06/21 05:27:44;;;;;;;5.55;3.33;;;18.60;99.90;;;20.56;96.39;97174.84;5289954;28;20191;-64
2021/06/21 05:30:18;;;;;;;6.70;3.00;;;19.00;99.90;;;21.01;90.33;97174.25;5290654;28;20198;-64
2021/06/21 05:32:52;;;;;;;6.25;3.30;;;19.30;99.90;;;21.65;90.57;97178.81;5287787;28;20580;-64
2021/06/21 05:35:25;;;;;;;5.85;2.42;;;19.60;99.90;;;21.73;82.84;97178.84;5290019;28;20215;-63
2021/06/21 05:37:59;;;;;;;6.53;2.88;;;19.80;99.90;;;21.77;83.96;97184.06;5290373;28;20663;-63
2021/06/21 05:40:33;;;;;;;5.82;2.97;;;19.60;99.90;;;22.17;86.03;97178.03;5289354;28;20582;-64
2021/06/21 05:43:06;;;;;;;4.13;2.78;;;20.00;99.90;;;22.30;81.50;97174.59;5289796;28;20191;-64
2021/06/21 05:45:39;;;;;;;7.70;3.10;;;20.20;99.90;;;22.80;82.41;97171.03;5289802;28;20219;-64
2021/06/21 05:48:12;;;;;;;4.97;2.53;;;20.50;99.90;;;23.10;76.69;97175.34;5289591;28;20198;-65
2021/06/21 05:50:45;;;;;;;6.13;2.55;;;20.80;99.90;;;23.36;79.29;97166.53;5289704;28;20218;-64
2021/06/21 05:53:19;;;;;;;6.75;2.45;;;21.10;99.90;;;23.85;77.00;97170.66;5289394;28;20246;-64
2021/06/21 05:55:53;;;;;;;7.28;2.70;;;21.50;99.90;;;24.19;71.93;97172.13;5289866;28;20694;-64
2021/06/21 05:58:27;;;;;;;5.57;2.90;;;21.80;99.90;;;24.58;71.87;97180.53;5290128;28;20216;-65
2021/06/21 06:01:00;;;;;;;6.05;2.30;;;22.00;99.90;;;24.75;68.89;97171.66;5287614;28;20237;-64
2021/06/21 06:03:33;;;;;;;7.35;2.80;;;22.10;99.90;;;25.09;69.57;97177.38;5285562;27;20206;-64
2021/06/21 06:06:06;;;;;;;6.85;2.70;;;22.40;99.90;;;25.27;64.81;97177.22;5288862;27;20215;-64
2021/06/21 06:08:39;;;;;;;6.05;2.58;;;22.70;99.90;;;25.37;63.95;97172.72;5286172;27;20195;-65
2021/06/21 06:11:13;;;;;;;7.05;2.72;;;22.70;99.90;;;25.59;60.83;97174.16;5287507;27;20191;-64
2021/06/21 06:13:46;;;;;;;5.22;2.55;;;22.90;99.90;;;25.56;60.64;97179.44;5288115;28;20194;-64
2021/06/21 06:16:19;;;;;;;8.90;2.45;;;23.00;99.90;;;26.17;62.37;97182.94;5289270;28;20211;-64
2021/06/21 06:18:52;;;;;;;5.13;2.50;;;23.30;99.90;;;26.63;60.01;97183.97;5288763;28;20659;-64
2021/06/21 06:21:29;;;;;;;8.82;2.80;;;23.60;99.90;;;27.03;62.21;97184.09;5289559;28;20271;-64
2021/06/21 06:24:02;;;;;;;7.75;2.85;;;23.70;99.90;;;27.27;58.34;97182.78;5287606;28;20195;-64
2021/06/21 06:26:37;;;;;;;4.97;2.35;;;23.90;99.90;;;27.34;54.09;97170.41;5284901;28;20226;-64
2021/06/21 06:29:10;;;;;;;5.85;2.70;;;24.20;99.90;;;27.60;54.04;97172.47;5286925;28;20202;-64
2021/06/21 06:31:47;;;;;;;5.60;2.30;;;24.40;99.90;;;28.15;57.03;97175.63;5293074;27;20191;-64
2021/06/21 06:34:22;;;;;;;7.47;2.40;;;24.80;99.90;;;28.58;52.91;97185.97;5288288;28;20242;-67
2021/06/21 06:36:56;;;;;;;7.00;2.50;;;25.00;99.90;;;28.83;53.25;97201.97;5288464;28;20224;-65
2021/06/21 06:39:31;;;;;;;6.72;2.40;;;25.20;99.90;;;28.59;49.58;97199.97;5288261;28;20200;-64
2021/06/21 06:42:07;;;;;;;9.02;2.78;;;25.40;99.90;;;27.25;52.58;97197.69;5288751;28;20194;-64
2021/06/21 06:44:40;;;;;;;4.20;2.10;;;25.00;99.90;;;27.20;54.36;97194.28;5288458;28;20191;-65
2021/06/21 06:47:13;;;;;;;6.32;2.33;;;24.90;99.90;;;27.71;52.42;97196.72;5288431;28;20197;-64
2021/06/21 06:49:46;;;;;;;4.68;2.40;;;25.10;99.90;;;28.04;52.73;97205.66;5289307;28;20201;-64
2021/06/21 06:52:22;;;;;;;6.68;2.20;;;25.50;99.90;;;28.54;50.29;97207.13;5288190;28;20195;-64
2021/06/21 06:57:47;;;;;;;6.97;2.17;;;26.20;99.90;;;29.65;47.26;97198.00;5288038;28;20183;-64
2021/06/21 07:00:20;;;;;;;7.78;2.35;;;26.60;99.90;;;29.55;47.83;97184.19;5288385;27;20221;-65
2021/06/21 07:02:53;;;;;;;5.18;2.00;;;26.90;99.90;;;30.03;45.86;97181.00;5279871;28;20199;-65
2021/06/21 07:05:26;;;;;;;5.72;2.28;;;27.00;99.90;;;30.33;45.93;97188.84;5287911;28;20717;-65
2021/06/21 07:08:00;;;;;;;5.97;2.17;;;27.30;99.90;;;30.79;45.17;97189.09;5292655;27;20201;-63
2021/06/21 07:10:33;;;;;;;5.00;2.00;;;27.60;99.90;;;30.88;43.69;97194.97;5288771;28;20190;-63
2021/06/21 07:13:07;;;;;;;4.05;2.03;;;27.90;99.90;;;30.00;45.75;97182.88;5288195;28;20202;-63
2021/06/21 07:15:43;;;;;;;5.13;1.90;;;27.50;99.90;;;30.66;45.75;97183.38;5288350;28;20214;-63
2021/06/21 07:18:17;;;;;;;5.55;1.80;;;27.60;99.90;;;30.71;43.58;97184.97;5288100;28;20195;-63
2021/06/21 07:20:49;;;;;;;7.32;2.00;;;27.90;99.10;;;30.91;42.01;97189.56;5288729;28;20211;-64
2021/06/21 07:23:23;;;;;;;6.15;1.92;;;28.00;97.30;;;31.10;42.36;97191.56;5287242;28;20195;-64
2021/06/21 07:25:56;;;;;;;4.78;1.98;;;28.00;97.60;;;31.48;42.78;97197.25;5287049;28;20219;-64
2021/06/21 07:28:30;;;;;;;4.72;1.85;;;28.20;98.10;;;31.78;42.15;97197.88;5288789;28;20217;-64
2021/06/21 07:31:04;;;;;;;5.80;2.13;;;28.40;97.80;;;31.58;41.51;97185.41;5288274;28;20194;-64
2021/06/21 07:33:38;;;;;;;4.70;1.55;;;28.50;97.10;;;31.82;40.73;97194.16;5288196;28;20274;-64
2021/06/21 07:36:11;;;;;;;4.65;2.08;;;28.50;96.80;;;32.01;41.61;97191.72;5286663;28;20210;-64
2021/06/21 07:38:44;;;;;;;5.88;1.90;;;28.60;97.20;;;32.07;41.43;97194.13;5293586;27;20199;-64
2021/06/21 07:41:18;;;;;;;4.07;1.60;;;29.10;96.40;;;32.42;41.69;97192.69;5287045;28;20319;-64
2021/06/21 07:43:52;;;;;;;3.15;1.83;;;29.40;96.20;;;32.74;39.39;97188.72;5281975;28;20202;-63
2021/06/21 07:46:27;;;;;;;3.25;1.70;;;29.50;94.50;;;32.72;38.82;97193.22;5287846;28;20263;-63
2021/06/21 07:49:00;;;;;;;5.80;1.92;;;29.40;95.00;;;32.92;39.51;97194.16;5288180;28;20216;-63
2021/06/21 07:51:33;;;;;;;5.20;1.70;;;29.40;95.60;;;33.01;38.69;97188.47;5287618;28;20197;-64
2021/06/21 07:54:07;;;;;;;4.18;1.90;;;29.40;94.40;;;33.08;37.45;97189.06;5287663;28;20191;-64
2021/06/21 07:56:40;;;;;;;6.25;1.65;;;29.60;93.40;;;33.32;37.46;97192.44;5287409;28;20218;-64
2021/06/21 07:59:14;;;;;;;3.15;1.45;;;29.50;94.20;;;33.50;37.41;97186.28;5288055;28;20191;-64
2021/06/21 08:01:47;;;;;;;3.25;1.50;;;30.00;93.10;;;33.57;35.90;97193.06;5288315;28;20213;-63
2021/06/21 08:04:20;;;;;;;4.47;1.50;;;29.70;92.70;;;33.86;36.56;97189.06;5291984;28;20229;-63
2021/06/21 08:06:53;;;;;;;3.47;1.33;;;30.00;92.60;;;34.05;35.34;97188.19;5287106;28;20206;-63
2021/06/21 08:09:26;;;;;;;5.10;1.80;;;29.90;91.90;;;33.92;35.31;97189.69;5287514;28;20191;-63
2021/06/21 08:12:00;;;;;;;4.32;1.73;;;30.00;91.90;;;33.88;35.54;97188.97;5286741;28;20182;-64
2021/06/21 08:14:34;;;;;;;3.10;1.55;;;30.00;92.00;;;34.03;34.29;97187.41;5285589;28;20269;-64
2021/06/21 08:17:08;;;;;;;6.78;1.67;;;29.70;91.50;;;34.23;35.17;97197.06;5279850;28;20207;-64
2021/06/21 08:19:41;;;;;;;3.65;1.50;;;30.00;92.20;;;34.22;33.15;97190.03;5287918;28;20202;-64
2021/06/21 08:22:16;;;;;;;3.75;1.42;;;30.30;90.10;;;34.13;35.29;97190.50;5288005;28;20205;-64
2021/06/21 08:24:50;;;;;;;3.22;1.50;;;30.40;91.20;;;34.04;35.15;97181.19;5287243;28;20638;-64
2021/06/21 08:27:24;;;;;;;4.70;1.50;;;30.60;90.30;;;33.99;34.01;97177.84;5287802;28;20206;-64
2021/06/21 08:29:59;;;;;;;4.10;1.38;;;30.40;89.00;;;33.64;35.63;97178.59;5286543;28;20195;-63
2021/06/21 08:32:32;;;;;;;3.92;1.45;;;30.50;90.20;;;33.37;35.57;97180.69;5287183;28;20212;-63
2021/06/21 08:35:07;;;;;;;6.00;1.70;;;30.40;89.50;;;33.32;35.55;97192.44;5287436;28;20214;-63
2021/06/21 08:37:40;;;;;;;3.03;1.38;;;30.60;88.70;;;33.27;35.71;97189.97;5290216;28;20194;-63
2021/06/21 08:40:15;;;;;;;3.28;1.63;;;30.60;87.00;;;33.15;35.53;97186.09;5291651;28;20191;-63
2021/06/21 08:42:48;;;;;;;2.53;1.42;;;30.50;89.30;;;32.87;35.56;97182.91;5290781;28;20220;-64
2021/06/21 08:45:23;;;;;;;3.72;1.52;;;30.20;88.50;;;32.70;36.97;97187.13;5290670;28;20211;-64
2021/06/21 08:47:56;;;;;;;2.80;1.40;;;30.10;88.70;;;32.61;35.96;97184.00;5291015;28;20194;-64
2021/06/21 08:50:29;;;;;;;4.30;1.70;;;30.00;87.70;;;32.61;36.15;97194.59;5290999;28;20190;-64
2021/06/21 08:53:03;;;;;;;4.40;1.45;;;30.30;86.80;;;32.46;35.37;97196.97;5290656;28;20202;-64
2021/06/21 08:55:39;;;;;;;3.55;1.50;;;30.30;85.00;;;32.49;35.27;97191.53;5291075;28;20226;-64
2021/06/21 08:58:12;;;;;;;3.30;1.65;;;30.10;86.00;;;32.38;35.90;97192.88;5290008;28;20194;-64
2021/06/21 09:00:47;;;;;;;4.10;1.60;;;30.20;86.40;;;32.17;35.13;97186.69;5290376;28;20726;-65
2021/06/21 09:03:20;;;;;;;5.13;1.88;;;30.00;84.60;;;32.02;37.01;97188.13;5290706;28;20879;-65
2021/06/21 09:05:54;;;;;;;1.55;1.35;;;30.00;88.40;;;32.11;37.82;97181.63;5290803;28;20594;-65
2021/06/21 09:08:27;;;;;;;3.28;1.70;;;30.30;88.60;;;32.21;38.22;97181.19;5291237;28;20199;-65
2021/06/21 09:11:00;;;;;;;3.20;1.63;;;30.30;90.00;;;32.02;39.87;97183.72;5290924;28;20197;-65
2021/06/21 09:13:33;;;;;;;3.83;1.88;;;30.20;90.20;;;32.06;38.96;97169.44;5289599;28;20194;-65
2021/06/21 09:16:07;;;;;;;3.75;1.67;;;30.40;89.70;;;31.96;38.01;97177.81;5290954;28;20211;-65
2021/06/21 09:18:40;;;;;;;3.20;1.60;;;30.50;87.40;;;31.80;38.60;97175.75;5290355;28;20195;-65
2021/06/21 09:21:27;;;;;;;3.22;1.55;;;30.20;88.90;;;31.76;38.70;97175.91;5291077;27;20218;-65
2021/06/21 09:24:19;;;;;;;3.28;1.48;;;30.20;89.30;;;31.90;37.42;97165.66;5284115;28;20190;-66
2021/06/21 09:26:56;;;;;;;3.95;1.85;;;30.60;86.60;;;31.87;37.16;97174.56;5290492;28;20268;-66
2021/06/21 09:29:35;;;;;;;2.80;1.67;;;30.60;85.30;;;31.28;39.38;97164.50;5291195;28;20231;-65
2021/06/21 09:32:46;;;;;;;3.13;1.80;;;30.20;87.90;;;30.95;39.46;97179.75;5290330;28;20199;-65
2021/06/21 09:35:39;;;;;;;2.85;1.60;;;29.70;88.90;;;31.20;40.49;97177.09;5284439;28;20577;-65
2021/06/21 09:38:17;;;;;;;3.53;1.77;;;30.00;90.00;;;31.19;39.33;97178.91;5290989;28;20198;-65
2021/06/21 09:40:53;;;;;;;2.40;1.60;;;29.70;88.90;;;31.26;36.61;97182.16;5290786;27;20203;-65
2021/06/21 09:43:29;;;;;;;4.85;1.65;;;29.80;83.30;;;31.15;37.37;97176.41;5289954;28;20198;-65
2021/06/21 09:46:13;;;;;;;2.95;1.83;;;29.70;84.60;;;30.98;38.78;97179.66;5290222;28;20222;-65
2021/06/21 09:48:50;;;;;;;4.57;1.98;;;29.50;87.00;;;31.03;38.46;97176.84;5289964;28;20201;-65
2021/06/21 09:51:28;;;;;;;3.28;1.65;;;29.50;86.10;;;30.72;38.40;97173.47;5290350;28;20193;-65
2021/06/21 09:54:06;;;;;;;3.40;1.60;;;29.30;86.20;;;30.52;40.00;97179.44;5289651;28;20216;-65
2021/06/21 09:56:43;;;;;;;2.28;1.67;;;29.00;88.90;;;30.26;41.49;97175.03;5290541;28;20225;-65
2021/06/21 09:59:22;;;;;;;3.30;1.60;;;28.80;90.30;;;30.33;40.81;97175.69;5289725;28;20178;-65
2021/06/21 10:02:08;;;;;;;2.22;1.60;;;28.80;90.20;;;30.20;40.74;97176.97;5290014;28;20584;-65
2021/06/21 10:04:44;;;;;;;3.83;2.10;;;28.60;90.40;;;30.04;40.08;97169.53;5288847;28;20599;-65
2021/06/21 10:07:30;;;;;;;2.85;1.70;;;28.60;89.00;;;29.84;41.48;97171.94;5289591;28;20197;-65
2021/06/21 10:10:07;;;;;;;2.33;1.70;;;28.60;90.20;;;29.81;41.18;97172.03;5289827;28;20191;-65
2021/06/21 10:12:41;;;;;;;2.88;1.63;;;28.50;90.20;;;29.61;40.87;97170.84;5289073;28;20195;-65
2021/06/21 10:15:15;;;;;;;3.97;2.05;;;28.20;88.50;;;29.19;41.27;97176.47;5289117;28;20219;-65
2021/06/21 10:17:48;;;;;;;3.80;1.60;;;27.80;88.90;;;29.00;41.34;97171.72;5289342;28;20187;-65
2021/06/21 10:20:23;;;;;;;3.30;1.88;;;27.90;89.00;;;29.05;40.66;97175.13;5290019;28;20191;-65
2021/06/21 10:22:57;;;;;;;2.20;1.95;;;27.80;88.60;;;29.14;41.67;97175.72;5289116;28;20228;-65
2021/06/21 10:25:30;;;;;;;3.45;1.60;;;28.00;88.90;;;29.35;42.08;97178.66;5289212;28;20503;-63
2021/06/21 10:28:05;;;;;;;3.35;1.70;;;28.30;89.10;;;29.39;40.83;97175.03;5290227;27;20205;-64
2021/06/21 10:30:38;;;;;;;1.73;1.52;;;28.40;87.30;;;29.39;40.13;97170.63;5289819;28;20191;-64
2021/06/21 10:33:11;;;;;;;1.58;1.48;;;28.30;85.80;;;29.55;40.41;97167.53;5288651;28;20653;-64
2021/06/21 10:35:46;;;;;;;3.47;1.50;;;28.50;88.10;;;29.76;38.59;97168.69;5289221;28;20222;-63
2021/06/21 10:38:19;;;;;;;3.08;1.55;;;28.40;86.10;;;29.69;39.91;97162.75;5289124;28;20195;-63
2021/06/21 10:40:56;;;;;;;3.10;1.80;;;28.50;86.00;;;29.57;39.20;97161.31;5289510;28;20195;-63
2021/06/21 10:43:49;;;;;;;4.10;1.60;;;28.70;85.10;;;29.70;40.56;97163.59;5288189;28;20218;-64
2021/06/21 10:46:27;;;;;;;3.08;1.50;;;28.70;86.30;;;29.71;39.59;97163.56;5288285;28;20214;-63
2021/06/21 10:49:31;;;;;;;2.63;1.67;;;28.60;86.20;;;29.70;38.34;97160.97;5289518;28;20189;-62
2021/06/21 10:52:47;;;;;;;2.58;1.63;;;28.50;83.90;;;29.67;38.39;97158.44;5281826;28;20187;-63